Time;durP1;ratioP1;P1;durP2;ratioP2;P2;SDS_P1;SDS_P2;PMS_P1;PMS_P2;Temp;Humidity;BMP_temperature;BMP_pressure;BME280_temperature;BME280_humidity;BME280_pressure;Samples;Min_cycle;Max_cycle;Signal;HPM_P1;HPM_P2
2022/04/18 00:00:50;;;;;;;19.38;11.18;;;;;;;;;;5007296;28;20567;-58
2022/04/18 00:03:16;;;;;;;21.33;11.13;;;;;;;;;;5008644;28;20498;-57
2022/04/18 00:05:42;;;;;;;20.38;11.88;;;;;;;;;;5007978;28;20064;-57
2022/04/18 00:08:08;;;;;;;18.13;11.55;;;;;;;;;;5008938;28;20056;-57
2022/04/18 00:10:35;;;;;;;17.95;11.25;;;;;;;;;;5008191;28;20456;-57
2022/04/18 00:13:01;;;;;;;17.90;11.50;;;;;;;;;;5008655;28;20132;-57
2022/04/18 00:15:27;;;;;;;17.65;11.45;;;;;;;;;;5008844;28;20078;-58
2022/04/18 00:17:54;;;;;;;19.30;11.30;;;;;;;;;;5007044;28;20052;-57
2022/04/18 00:20:20;;;;;;;16.30;11.10;;;;;;;;;;5008019;28;20523;-58
2022/04/18 00:22:46;;;;;;;17.55;11.30;;;;;;;;;;5008148;28;20511;-57
2022/04/18 00:25:12;;;;;;;18.52;11.63;;;;;;;;;;4992345;28;20034;-57
2022/04/18 00:27:38;;;;;;;26.25;11.85;;;;;;;;;;4988482;28;20047;-57
2022/04/18 00:30:05;;;;;;;18.50;11.20;;;;;;;;;;4988756;28;20469;-58
2022/04/18 00:32:31;;;;;;;18.75;12.05;;;;;;;;;;4987543;28;20046;-58
2022/04/18 00:34:57;;;;;;;20.27;12.07;;;;;;;;;;4988613;28;20503;-57
2022/04/18 00:37:23;;;;;;;19.05;11.88;;;;;;;;;;4988780;28;20101;-57
2022/04/18 00:39:49;;;;;;;21.45;11.48;;;;;;;;;;4988516;28;20693;-57
2022/04/18 00:42:16;;;;;;;20.95;12.15;;;;;;;;;;4988521;28;20050;-58
2022/04/18 00:44:42;;;;;;;20.52;12.43;;;;;;;;;;4988461;28;20117;-57
2022/04/18 00:47:08;;;;;;;20.13;11.18;;;;;;;;;;4987237;28;20520;-57
2022/04/18 00:49:35;;;;;;;18.85;11.10;;;;;;;;;;4988232;28;20519;-57
2022/04/18 00:52:03;;;;;;;18.92;11.05;;;;;;;;;;4988563;28;20092;-58
2022/04/18 00:54:30;;;;;;;22.05;12.00;;;;;;;;;;4988556;28;20262;-57
2022/04/18 00:56:57;;;;;;;21.55;12.20;;;;;;;;;;4988472;28;20061;-57
2022/04/18 00:59:23;;;;;;;20.20;11.48;;;;;;;;;;4988184;28;20038;-57
2022/04/18 01:01:49;;;;;;;18.17;11.38;;;;;;;;;;4985440;28;20121;-57
2022/04/18 01:04:16;;;;;;;21.90;11.90;;;;;;;;;;4987870;28;20050;-57
2022/04/18 01:06:42;;;;;;;19.38;12.02;;;;;;;;;;5004904;23;20068;-57
2022/04/18 01:09:08;;;;;;;19.42;11.93;;;;;;;;;;5007867;28;20042;-57
2022/04/18 01:11:34;;;;;;;19.38;11.98;;;;;;;;;;5007659;28;20121;-58
2022/04/18 01:14:02;;;;;;;20.40;11.88;;;;;;;;;;5007661;28;20054;-58
2022/04/18 01:16:28;;;;;;;19.58;11.80;;;;;;;;;;5006971;28;20040;-58
2022/04/18 01:18:57;;;;;;;19.83;12.48;;;;;;;;;;5007317;28;20491;-57
2022/04/18 01:21:23;;;;;;;18.52;11.75;;;;;;;;;;5007247;28;20096;-57
2022/04/18 01:23:49;;;;;;;20.15;12.95;;;;;;;;;;5007260;28;20049;-57
2022/04/18 01:29:01;;;;;;;20.90;11.95;;;;;;;;;;4989812;28;20187;-57
2022/04/18 01:31:30;;;;;;;17.58;11.60;;;;;;;;;;5007135;28;20074;-58
2022/04/18 01:33:56;;;;;;;20.67;12.60;;;;;;;;;;5007483;28;20049;-57
2022/04/18 01:36:23;;;;;;;19.30;12.02;;;;;;;;;;5007064;28;20112;-57
2022/04/18 01:38:49;;;;;;;21.40;11.23;;;;;;;;;;5006334;28;20046;-57
2022/04/18 01:41:15;;;;;;;17.40;11.23;;;;;;;;;;5007019;28;20141;-57
2022/04/18 01:43:41;;;;;;;19.77;11.98;;;;;;;;;;5006557;28;20257;-57
2022/04/18 01:46:07;;;;;;;24.25;12.85;;;;;;;;;;5006104;28;20041;-57
2022/04/18 01:48:33;;;;;;;20.60;12.02;;;;;;;;;;5006964;28;20056;-57
2022/04/18 01:51:00;;;;;;;17.85;11.60;;;;;;;;;;5007269;28;20123;-57
2022/04/18 01:53:27;;;;;;;18.08;12.10;;;;;;;;;;4988895;28;20082;-57
2022/04/18 01:55:54;;;;;;;20.67;12.73;;;;;;;;;;5006671;28;20085;-57
2022/04/18 01:58:20;;;;;;;20.50;12.20;;;;;;;;;;5006711;28;20729;-57
2022/04/18 02:00:46;;;;;;;18.20;11.98;;;;;;;;;;5005852;28;20050;-57
2022/04/18 02:03:12;;;;;;;22.48;12.57;;;;;;;;;;4988939;28;20054;-58
2022/04/18 02:05:39;;;;;;;18.83;12.07;;;;;;;;;;5006681;28;20050;-57
2022/04/18 02:08:06;;;;;;;19.92;12.35;;;;;;;;;;5006133;28;20415;-58
2022/04/18 02:10:32;;;;;;;21.85;12.70;;;;;;;;;;5006202;28;20121;-57
2022/04/18 02:12:59;;;;;;;20.45;11.90;;;;;;;;;;5006593;28;20108;-57
2022/04/18 02:15:25;;;;;;;23.35;12.95;;;;;;;;;;5005364;28;20049;-57
2022/04/18 02:17:51;;;;;;;20.65;12.55;;;;;;;;;;5006133;28;20045;-57
2022/04/18 02:20:17;;;;;;;19.73;12.25;;;;;;;;;;5006493;28;20060;-57
2022/04/18 02:22:44;;;;;;;21.95;12.30;;;;;;;;;;5005809;28;20054;-57
2022/04/18 02:25:10;;;;;;;24.13;12.77;;;;;;;;;;5006134;28;20046;-57
2022/04/18 02:27:36;;;;;;;21.80;12.23;;;;;;;;;;5005733;28;20452;-58
2022/04/18 02:30:03;;;;;;;23.30;13.07;;;;;;;;;;5006318;28;20046;-57
2022/04/18 02:32:48;;;;;;;20.30;12.68;;;;;;;;;;5005704;28;20431;-57
2022/04/18 02:35:15;;;;;;;22.65;12.82;;;;;;;;;;5006104;28;20044;-57
2022/04/18 02:37:41;;;;;;;25.25;13.00;;;;;;;;;;5005925;28;20664;-57
2022/04/18 02:40:08;;;;;;;22.02;12.68;;;;;;;;;;5005999;28;20042;-57
2022/04/18 02:42:34;;;;;;;21.35;13.65;;;;;;;;;;5005739;28;20089;-57
2022/04/18 02:45:00;;;;;;;25.65;13.98;;;;;;;;;;5006100;28;20081;-57
2022/04/18 02:47:26;;;;;;;20.75;12.75;;;;;;;;;;5005154;28;20104;-57
2022/04/18 02:49:52;;;;;;;21.30;12.68;;;;;;;;;;4988071;28;20630;-57
2022/04/18 02:52:18;;;;;;;24.80;12.70;;;;;;;;;;5012031;28;20542;-57
2022/04/18 02:54:45;;;;;;;25.05;12.50;;;;;;;;;;5025280;28;20041;-57
2022/04/18 02:57:12;;;;;;;20.45;12.88;;;;;;;;;;5025037;28;20402;-57
2022/04/18 02:59:38;;;;;;;20.52;13.05;;;;;;;;;;5025087;28;20049;-57
2022/04/18 03:02:05;;;;;;;27.48;13.50;;;;;;;;;;5024288;28;20437;-57
2022/04/18 03:04:31;;;;;;;21.25;12.98;;;;;;;;;;5024946;28;20064;-57
2022/04/18 03:06:58;;;;;;;24.88;13.32;;;;;;;;;;5024772;28;20057;-57
2022/04/18 03:09:24;;;;;;;21.77;13.18;;;;;;;;;;5025506;28;20041;-57
2022/04/18 03:11:50;;;;;;;22.48;12.63;;;;;;;;;;5024973;28;20056;-57
2022/04/18 03:14:16;;;;;;;19.65;12.45;;;;;;;;;;5024822;28;20095;-57
2022/04/18 03:16:42;;;;;;;19.83;13.05;;;;;;;;;;5024153;28;20068;-57
2022/04/18 03:19:08;;;;;;;24.35;12.88;;;;;;;;;;5025198;28;20050;-58
2022/04/18 03:21:35;;;;;;;24.02;12.77;;;;;;;;;;5024776;28;20482;-57
2022/04/18 03:24:01;;;;;;;22.92;13.43;;;;;;;;;;5025249;28;20045;-58
2022/04/18 03:26:27;;;;;;;23.70;12.70;;;;;;;;;;5030557;28;20037;-57
2022/04/18 03:28:53;;;;;;;21.15;12.82;;;;;;;;;;5030858;28;20103;-58
2022/04/18 03:31:19;;;;;;;23.83;12.35;;;;;;;;;;5030776;28;20168;-57
2022/04/18 03:33:45;;;;;;;22.83;12.55;;;;;;;;;;5031480;28;20088;-57
2022/04/18 03:41:41;;;;;;;18.90;11.95;;;;;;;;;;5031224;28;20049;-57
2022/04/18 03:44:09;;;;;;;25.08;12.95;;;;;;;;;;5031580;28;20098;-57
2022/04/18 03:46:35;;;;;;;21.30;13.73;;;;;;;;;;5030576;28;20091;-57
2022/04/18 03:49:01;;;;;;;18.95;11.98;;;;;;;;;;5031600;28;20049;-57
2022/04/18 03:51:27;;;;;;;19.17;12.20;;;;;;;;;;5031478;28;20041;-57
2022/04/18 03:53:53;;;;;;;21.98;13.15;;;;;;;;;;5031070;28;20118;-57
2022/04/18 03:56:19;;;;;;;18.38;12.63;;;;;;;;;;5031907;28;20773;-57
2022/04/18 03:58:45;;;;;;;21.60;12.50;;;;;;;;;;5030995;28;20092;-56
2022/04/18 04:01:12;;;;;;;21.73;12.63;;;;;;;;;;5030224;28;20085;-57
2022/04/18 04:03:38;;;;;;;21.38;12.38;;;;;;;;;;5030957;28;20056;-57
2022/04/18 04:06:04;;;;;;;21.80;13.60;;;;;;;;;;5031194;28;20522;-58
2022/04/18 04:08:32;;;;;;;23.65;12.95;;;;;;;;;;5031217;28;20056;-58
2022/04/18 04:10:58;;;;;;;19.90;12.43;;;;;;;;;;5013693;28;20061;-58
2022/04/18 04:13:24;;;;;;;19.85;12.75;;;;;;;;;;5031034;28;20041;-57
2022/04/18 04:15:50;;;;;;;22.05;12.52;;;;;;;;;;5030136;28;20264;-57
2022/04/18 04:18:16;;;;;;;18.75;12.15;;;;;;;;;;5031098;28;20037;-57
2022/04/18 04:20:42;;;;;;;22.23;13.07;;;;;;;;;;5030992;28;20080;-57
2022/04/18 04:23:08;;;;;;;21.15;12.90;;;;;;;;;;5031118;28;20049;-57
2022/04/18 04:25:34;;;;;;;23.27;13.50;;;;;;;;;;5031102;28;20041;-58
2022/04/18 04:28:01;;;;;;;27.20;13.13;;;;;;;;;;5031584;28;20510;-57
2022/04/18 04:30:27;;;;;;;20.05;12.48;;;;;;;;;;5030286;28;20049;-57
2022/04/18 04:32:53;;;;;;;22.35;13.18;;;;;;;;;;5030478;28;20125;-57
2022/04/18 04:35:19;;;;;;;19.92;12.35;;;;;;;;;;5031045;28;20052;-57
2022/04/18 04:37:45;;;;;;;23.13;13.63;;;;;;;;;;5027605;28;20056;-58
2022/04/18 04:40:12;;;;;;;23.83;13.10;;;;;;;;;;5025792;28;20561;-58
2022/04/18 04:42:38;;;;;;;21.35;12.57;;;;;;;;;;5026822;28;20081;-58
2022/04/18 04:45:04;;;;;;;26.20;13.70;;;;;;;;;;5026733;28;20052;-58
2022/04/18 04:47:31;;;;;;;30.05;13.00;;;;;;;;;;5027039;28;20053;-58
2022/04/18 04:49:57;;;;;;;21.73;11.98;;;;;;;;;;5027184;28;20037;-59
2022/04/18 04:52:23;;;;;;;23.33;12.50;;;;;;;;;;5026697;28;20053;-59
2022/04/18 04:54:49;;;;;;;22.33;12.25;;;;;;;;;;5026232;28;20507;-58
2022/04/18 04:57:16;;;;;;;20.67;12.60;;;;;;;;;;5026694;28;20128;-58
2022/04/18 04:59:42;;;;;;;23.77;13.15;;;;;;;;;;5026672;28;20072;-58
2022/04/18 05:02:08;;;;;;;21.40;12.82;;;;;;;;;;5026451;28;20469;-59
2022/04/18 05:04:34;;;;;;;22.15;12.38;;;;;;;;;;5027023;28;20047;-58
2022/04/18 05:07:00;;;;;;;23.08;12.05;;;;;;;;;;5009146;28;20049;-59
2022/04/18 05:09:27;;;;;;;21.33;12.18;;;;;;;;;;5026723;28;20092;-59
2022/04/18 05:11:53;;;;;;;18.67;12.63;;;;;;;;;;5026858;28;20050;-59
2022/04/18 05:14:19;;;;;;;18.85;11.48;;;;;;;;;;5027028;28;20052;-59
2022/04/18 05:16:45;;;;;;;19.40;11.52;;;;;;;;;;5025300;28;20076;-59
2022/04/18 05:19:12;;;;;;;25.13;12.20;;;;;;;;;;5027067;28;20046;-59
2022/04/18 05:21:38;;;;;;;26.02;11.93;;;;;;;;;;5025197;28;20045;-59
2022/04/18 05:24:05;;;;;;;19.52;11.38;;;;;;;;;;5026837;28;20045;-59
2022/04/18 05:26:31;;;;;;;19.27;11.93;;;;;;;;;;5014513;28;20104;-59
2022/04/18 05:28:57;;;;;;;21.67;11.13;;;;;;;;;;5015428;28;20455;-58
2022/04/18 05:31:24;;;;;;;20.73;11.30;;;;;;;;;;5014426;28;20128;-59
2022/04/18 05:33:50;;;;;;;19.60;12.02;;;;;;;;;;4992537;28;20044;-58
2022/04/18 05:36:17;;;;;;;21.92;11.05;;;;;;;;;;5007299;28;20072;-59
2022/04/18 05:38:43;;;;;;;18.98;11.48;;;;;;;;;;5019435;28;20053;-59
2022/04/18 05:41:09;;;;;;;20.20;11.38;;;;;;;;;;5020175;28;20053;-58
2022/04/18 05:43:35;;;;;;;21.20;11.40;;;;;;;;;;5017238;28;20052;-59
2022/04/18 05:46:01;;;;;;;21.20;11.45;;;;;;;;;;5018932;28;20033;-59
2022/04/18 05:48:28;;;;;;;20.60;12.02;;;;;;;;;;5025985;28;20065;-57
2022/04/18 05:50:54;;;;;;;17.55;11.70;;;;;;;;;;5025760;28;20479;-58
2022/04/18 05:53:25;;;;;;;20.17;12.23;;;;;;;;;;5024896;28;20344;-58
2022/04/18 05:55:51;;;;;;;21.05;11.73;;;;;;;;;;5025552;28;20044;-58
2022/04/18 05:58:17;;;;;;;22.50;11.75;;;;;;;;;;5025613;28;20410;-58
2022/04/18 06:00:43;;;;;;;18.10;11.63;;;;;;;;;;5024824;28;20045;-59
2022/04/18 06:03:09;;;;;;;22.20;11.82;;;;;;;;;;5025918;28;20189;-58
2022/04/18 06:05:36;;;;;;;15.90;11.18;;;;;;;;;;5021485;28;20147;-57
2022/04/18 06:08:03;;;;;;;16.50;10.57;;;;;;;;;;5025309;28;20506;-58
2022/04/18 06:10:30;;;;;;;19.05;12.00;;;;;;;;;;5025381;28;20443;-58
2022/04/18 06:12:56;;;;;;;18.27;10.57;;;;;;;;;;5026219;28;20054;-59
2022/04/18 06:15:22;;;;;;;17.35;11.00;;;;;;;;;;5025059;28;20045;-59
2022/04/18 06:17:48;;;;;;;21.98;12.18;;;;;;;;;;5025430;28;20048;-58
2022/04/18 06:20:14;;;;;;;22.25;11.80;;;;;;;;;;5025408;28;20041;-58
2022/04/18 06:22:40;;;;;;;19.55;11.32;;;;;;;;;;5025273;28;20038;-58
2022/04/18 06:25:07;;;;;;;19.33;11.52;;;;;;;;;;5024591;28;20045;-58
2022/04/18 06:27:33;;;;;;;16.83;10.85;;;;;;;;;;5025079;28;20495;-59
2022/04/18 06:29:59;;;;;;;21.48;11.82;;;;;;;;;;5024985;28;20041;-58
2022/04/18 06:32:25;;;;;;;20.05;11.02;;;;;;;;;;5025713;28;20033;-58
2022/04/18 06:34:51;;;;;;;17.23;10.70;;;;;;;;;;5025054;28;20475;-58
2022/04/18 06:37:18;;;;;;;18.88;11.70;;;;;;;;;;5025103;28;20168;-59
2022/04/18 06:39:44;;;;;;;18.63;10.60;;;;;;;;;;5025148;28;20107;-59
2022/04/18 06:42:10;;;;;;;20.83;11.43;;;;;;;;;;5025025;28;20063;-59
2022/04/18 06:44:36;;;;;;;17.55;11.27;;;;;;;;;;5024685;28;20033;-59
2022/04/18 06:47:02;;;;;;;19.27;11.43;;;;;;;;;;5024059;28;20104;-59
2022/04/18 06:49:28;;;;;;;19.30;11.23;;;;;;;;;;5025448;28;20512;-58
2022/04/18 06:51:55;;;;;;;19.95;10.95;;;;;;;;;;5025094;28;20041;-58
2022/04/18 06:54:21;;;;;;;20.10;11.43;;;;;;;;;;5024555;28;20598;-57
2022/04/18 06:56:59;;;;;;;19.30;10.82;;;;;;;;;;5007250;28;20038;-59
2022/04/18 06:59:26;;;;;;;18.35;11.13;;;;;;;;;;5022804;28;20037;-58
2022/04/18 07:01:52;;;;;;;19.45;10.70;;;;;;;;;;5023317;28;20098;-58
2022/04/18 07:04:18;;;;;;;20.27;11.50;;;;;;;;;;5024940;28;20053;-59
2022/04/18 07:06:44;;;;;;;17.00;10.68;;;;;;;;;;5024121;28;20056;-59
2022/04/18 07:09:11;;;;;;;23.33;11.15;;;;;;;;;;5024666;28;20052;-59
2022/04/18 07:11:37;;;;;;;19.98;11.57;;;;;;;;;;5024510;28;20592;-59
2022/04/18 07:14:03;;;;;;;21.38;11.90;;;;;;;;;;5024747;28;20041;-59
2022/04/18 07:16:30;;;;;;;17.92;10.88;;;;;;;;;;5022998;28;20064;-59
2022/04/18 07:18:57;;;;;;;28.58;13.52;;;;;;;;;;5024476;28;20045;-59
2022/04/18 07:21:24;;;;;;;18.97;10.50;;;;;;;;;;5024423;28;20045;-59
2022/04/18 07:23:50;;;;;;;14.63;9.27;;;;;;;;;;5006840;28;20342;-59
2022/04/18 07:26:16;;;;;;;18.35;9.82;;;;;;;;;;5006666;28;20567;-58
2022/04/18 07:28:42;;;;;;;20.13;10.73;;;;;;;;;;5024318;28;20120;-59
2022/04/18 07:31:08;;;;;;;15.98;10.05;;;;;;;;;;5023665;28;20037;-59
2022/04/18 07:33:34;;;;;;;15.70;10.15;;;;;;;;;;5020399;28;20041;-59
2022/04/18 07:36:01;;;;;;;17.67;10.40;;;;;;;;;;5024303;28;20095;-59
2022/04/18 07:41:12;;;;;;;19.67;10.60;;;;;;;;;;5023753;28;20445;-59
2022/04/18 07:43:38;;;;;;;17.67;10.10;;;;;;;;;;5023876;28;20041;-59
2022/04/18 07:46:04;;;;;;;15.10;9.45;;;;;;;;;;5023408;28;20041;-59
2022/04/18 07:48:31;;;;;;;30.48;10.45;;;;;;;;;;5019711;28;20574;-59
2022/04/18 07:53:42;;;;;;;17.25;9.57;;;;;;;;;;5024169;28;20048;-59
2022/04/18 07:56:08;;;;;;;20.00;9.63;;;;;;;;;;5023892;28;20124;-59
2022/04/18 07:58:35;;;;;;;15.63;9.45;;;;;;;;;;5021044;28;20042;-59
2022/04/18 08:01:01;;;;;;;14.45;9.13;;;;;;;;;;5023576;28;20038;-59
2022/04/18 08:03:27;;;;;;;17.42;9.45;;;;;;;;;;5024747;28;20096;-59
2022/04/18 08:05:56;;;;;;;17.83;9.57;;;;;;;;;;5023616;28;20546;-58
2022/04/18 08:08:22;;;;;;;14.27;8.95;;;;;;;;;;5024393;28;20511;-58
2022/04/18 08:10:49;;;;;;;13.73;8.68;;;;;;;;;;5024047;28;20904;-58
2022/04/18 08:13:15;;;;;;;15.15;8.77;;;;;;;;;;5026442;28;20637;-57
2022/04/18 08:15:41;;;;;;;14.30;8.93;;;;;;;;;;5027108;28;20073;-57
2022/04/18 08:18:07;;;;;;;15.15;7.90;;;;;;;;;;5028083;28;20136;-58
2022/04/18 08:20:33;;;;;;;14.82;8.77;;;;;;;;;;5027429;28;20041;-58
2022/04/18 08:23:00;;;;;;;11.27;7.90;;;;;;;;;;5028205;28;20049;-57
2022/04/18 08:25:26;;;;;;;15.05;9.05;;;;;;;;;;5028289;28;20518;-58
2022/04/18 08:27:52;;;;;;;15.88;8.70;;;;;;;;;;5027256;28;20068;-58
2022/04/18 08:30:18;;;;;;;17.92;8.43;;;;;;;;;;5027111;28;20042;-58
2022/04/18 08:32:44;;;;;;;14.05;8.52;;;;;;;;;;5026968;28;20084;-58
2022/04/18 08:35:11;;;;;;;16.23;8.48;;;;;;;;;;5027454;28;20052;-58
2022/04/18 08:37:37;;;;;;;17.55;8.68;;;;;;;;;;5027446;28;20179;-58
2022/04/18 08:40:05;;;;;;;13.45;8.57;;;;;;;;;;5027966;28;20052;-58
2022/04/18 08:42:34;;;;;;;14.27;9.07;;;;;;;;;;5027283;28;20049;-58
2022/04/18 08:45:03;;;;;;;14.07;8.40;;;;;;;;;;5026817;28;20033;-58
2022/04/18 08:52:59;;;;;;;14.52;8.57;;;;;;;;;;5026808;28;20045;-59
2022/04/18 08:55:26;;;;;;;14.98;8.95;;;;;;;;;;5027653;28;20049;-58
2022/04/18 08:57:52;;;;;;;12.57;7.85;;;;;;;;;;5027204;28;20045;-58
2022/04/18 09:00:18;;;;;;;16.90;8.13;;;;;;;;;;5026510;28;20049;-58
2022/04/18 09:02:44;;;;;;;12.50;8.23;;;;;;;;;;5026290;28;20060;-58
2022/04/18 09:05:11;;;;;;;16.70;7.60;;;;;;;;;;5019254;28;20056;-57
2022/04/18 09:07:37;;;;;;;13.68;7.32;;;;;;;;;;5023654;28;20066;-58
2022/04/18 09:10:04;;;;;;;12.60;7.57;;;;;;;;;;5026949;28;20085;-58
2022/04/18 09:12:31;;;;;;;11.70;7.50;;;;;;;;;;5026832;28;20052;-58
2022/04/18 09:14:57;;;;;;;13.07;7.68;;;;;;;;;;5026220;28;20045;-58
2022/04/18 09:17:31;;;;;;;11.63;6.82;;;;;;;;;;5026713;28;20487;-58
2022/04/18 09:20:10;;;;;;;22.67;7.47;;;;;;;;;;5026814;28;20046;-58
2022/04/18 09:22:45;;;;;;;16.30;8.30;;;;;;;;;;5006329;28;20046;-57
2022/04/18 09:25:19;;;;;;;16.27;7.85;;;;;;;;;;5006906;28;20129;-59
2022/04/18 09:27:53;;;;;;;12.77;7.45;;;;;;;;;;5026267;28;20085;-58
2022/04/18 09:30:20;;;;;;;10.65;6.78;;;;;;;;;;5026052;28;21219;-57
2022/04/18 09:33:06;;;;;;;12.82;7.57;;;;;;;;;;5025956;28;20044;-57
2022/04/18 09:35:33;;;;;;;14.93;7.22;;;;;;;;;;5026124;28;20057;-57
2022/04/18 09:38:00;;;;;;;13.98;7.20;;;;;;;;;;5008668;28;20403;-57
2022/04/18 09:40:26;;;;;;;12.32;8.48;;;;;;;;;;5008793;28;20056;-57
2022/04/18 09:42:53;;;;;;;14.52;7.13;;;;;;;;;;5025586;28;20056;-57
2022/04/18 09:45:20;;;;;;;13.75;8.40;;;;;;;;;;5025456;28;20042;-57
2022/04/18 09:47:54;;;;;;;12.57;8.13;;;;;;;;;;5025808;28;20056;-57
2022/04/18 09:53:06;;;;;;;14.65;6.95;;;;;;;;;;5025760;28;20411;-57
2022/04/18 09:55:32;;;;;;;12.68;7.55;;;;;;;;;;5025400;28;20048;-57
2022/04/18 09:58:02;;;;;;;11.88;7.72;;;;;;;;;;5026370;28;20085;-57
2022/04/18 10:00:29;;;;;;;14.30;6.95;;;;;;;;;;5024963;28;20092;-57
2022/04/18 10:02:56;;;;;;;12.73;7.18;;;;;;;;;;5025555;28;20594;-57
2022/04/18 10:05:23;;;;;;;16.92;7.68;;;;;;;;;;5007745;28;20127;-57
2022/04/18 10:07:49;;;;;;;12.40;7.40;;;;;;;;;;5025304;28;20569;-57
2022/04/18 10:10:15;;;;;;;17.45;7.45;;;;;;;;;;5008307;28;20100;-58
2022/04/18 10:12:41;;;;;;;14.55;8.15;;;;;;;;;;5025579;28;20045;-57
2022/04/18 10:15:07;;;;;;;18.45;7.72;;;;;;;;;;5024423;28;20084;-57
2022/04/18 10:17:38;;;;;;;13.68;6.97;;;;;;;;;;5025367;28;20128;-57
2022/04/18 10:20:20;;;;;;;9.20;6.53;;;;;;;;;;5025368;28;20535;-57
2022/04/18 10:22:59;;;;;;;12.57;6.38;;;;;;;;;;5025403;28;20051;-57
2022/04/18 10:25:34;;;;;;;12.05;6.75;;;;;;;;;;5025831;28;20045;-57
2022/04/18 10:28:08;;;;;;;12.50;6.63;;;;;;;;;;5025667;28;20049;-58
2022/04/18 10:30:38;;;;;;;12.90;6.80;;;;;;;;;;5024509;28;20060;-57
2022/04/18 10:33:05;;;;;;;10.43;6.32;;;;;;;;;;5024721;28;20033;-57
2022/04/18 10:35:31;;;;;;;11.40;6.45;;;;;;;;;;5024572;28;20077;-57
2022/04/18 10:37:57;;;;;;;11.68;6.22;;;;;;;;;;5025112;28;20038;-57
2022/04/18 10:40:24;;;;;;;11.85;6.07;;;;;;;;;;5022153;28;20045;-57
2022/04/18 10:42:50;;;;;;;7.93;5.43;;;;;;;;;;5024828;28;20092;-57
2022/04/18 10:45:17;;;;;;;11.50;5.60;;;;;;;;;;5023925;28;20111;-57
2022/04/18 10:47:56;;;;;;;11.88;5.93;;;;;;;;;;5006933;28;20128;-57
2022/04/18 10:50:23;;;;;;;11.55;5.55;;;;;;;;;;5016660;28;20042;-57
2022/04/18 10:53:05;;;;;;;10.75;5.63;;;;;;;;;;5015549;28;20911;-56
2022/04/18 10:55:32;;;;;;;8.73;4.68;;;;;;;;;;4996350;28;20125;-57
2022/04/18 10:58:18;;;;;;;7.60;4.68;;;;;;;;;;5011893;28;20037;-57
2022/04/18 11:00:46;;;;;;;9.48;4.57;;;;;;;;;;5014073;28;20422;-57
2022/04/18 11:03:12;;;;;;;7.05;4.30;;;;;;;;;;5010511;28;20578;-57
2022/04/18 11:05:39;;;;;;;8.68;4.80;;;;;;;;;;5010875;28;20042;-57
2022/04/18 11:08:22;;;;;;;7.35;4.25;;;;;;;;;;5017889;28;20103;-57
2022/04/18 11:10:49;;;;;;;6.30;3.85;;;;;;;;;;5015638;28;20045;-57
2022/04/18 11:13:15;;;;;;;7.55;3.30;;;;;;;;;;5013225;28;20084;-57
2022/04/18 11:15:41;;;;;;;5.50;3.30;;;;;;;;;;5013541;28;20072;-57
2022/04/18 11:18:09;;;;;;;4.32;2.80;;;;;;;;;;5014317;28;20073;-57
2022/04/18 11:20:36;;;;;;;7.45;3.72;;;;;;;;;;5010844;28;20050;-57
2022/04/18 11:23:22;;;;;;;10.85;3.50;;;;;;;;;;5014538;28;20045;-57
2022/04/18 11:25:52;;;;;;;5.03;2.80;;;;;;;;;;4996166;28;20045;-57
2022/04/18 11:28:18;;;;;;;5.35;3.28;;;;;;;;;;5011836;28;20049;-57
2022/04/18 11:30:44;;;;;;;6.30;3.08;;;;;;;;;;5014229;28;20039;-57
2022/04/18 11:33:10;;;;;;;6.35;3.30;;;;;;;;;;5022949;28;20045;-57
2022/04/18 11:35:36;;;;;;;6.30;3.42;;;;;;;;;;5022470;28;20564;-57
2022/04/18 11:38:07;;;;;;;7.20;3.88;;;;;;;;;;5017805;28;20099;-57
2022/04/18 11:40:40;;;;;;;5.95;4.00;;;;;;;;;;5010267;28;20089;-57
2022/04/18 11:43:11;;;;;;;6.15;3.50;;;;;;;;;;5012166;28;20487;-57
2022/04/18 11:45:38;;;;;;;5.28;3.20;;;;;;;;;;5013967;28;20041;-57
2022/04/18 11:48:04;;;;;;;8.00;3.58;;;;;;;;;;5005309;28;20053;-57
2022/04/18 11:50:32;;;;;;;5.28;3.28;;;;;;;;;;5027967;28;20045;-57
2022/04/18 11:52:58;;;;;;;;;;;;;;;;;;5018868;28;20112;-57
2022/04/18 11:55:24;;;;;;;9.50;4.30;;;;;;;;;;5019884;28;20062;-57
2022/04/18 11:57:51;;;;;;;6.65;3.45;;;;;;;;;;5021378;28;20450;-57
2022/04/18 12:06:44;;;;;;;8.35;4.00;;;;;;;;;;5017955;28;20120;-57
2022/04/18 12:08:37;;;;;;;5.40;3.47;;;;;;;;;;5007226;28;20054;-57
2022/04/18 12:11:04;;;;;;;6.78;3.97;;;;;;;;;;5008052;28;20124;-57
2022/04/18 12:13:30;;;;;;;5.28;3.90;;;;;;;;;;5008091;28;20530;-56
2022/04/18 12:15:56;;;;;;;8.25;4.35;;;;;;;;;;4989990;28;20085;-57
2022/04/18 12:18:26;;;;;;;5.55;3.88;;;;;;;;;;5007912;28;20045;-57
2022/04/18 12:20:52;;;;;;;12.23;4.65;;;;;;;;;;5007816;28;20167;-57
2022/04/18 12:23:20;;;;;;;11.10;4.85;;;;;;;;;;5007363;28;20492;-57
2022/04/18 12:25:46;;;;;;;9.15;4.53;;;;;;;;;;5008052;28;20060;-57
2022/04/18 12:28:13;;;;;;;8.73;4.55;;;;;;;;;;5008235;28;20530;-57
2022/04/18 12:30:40;;;;;;;7.65;4.80;;;;;;;;;;5006981;28;20050;-57
2022/04/18 12:33:11;;;;;;;6.68;3.92;;;;;;;;;;5007885;28;20042;-57
2022/04/18 12:35:38;;;;;;;8.77;4.50;;;;;;;;;;5006802;28;20088;-58
2022/04/18 12:38:05;;;;;;;7.03;4.63;;;;;;;;;;5007792;28;20100;-57
2022/04/18 12:40:33;;;;;;;7.70;5.17;;;;;;;;;;5007762;28;20041;-57
2022/04/18 12:43:05;;;;;;;8.48;4.45;;;;;;;;;;5007952;28;20396;-57
2022/04/18 12:45:43;;;;;;;11.07;4.88;;;;;;;;;;5006852;28;20495;-58
2022/04/18 12:48:09;;;;;;;8.43;5.00;;;;;;;;;;5007533;28;20085;-58
2022/04/18 12:50:36;;;;;;;15.55;4.80;;;;;;;;;;5007232;28;20038;-57
2022/04/18 12:53:02;;;;;;;8.23;4.70;;;;;;;;;;5007267;28;20049;-58
2022/04/18 12:55:30;;;;;;;9.13;4.95;;;;;;;;;;5007812;28;20041;-57
2022/04/18 12:57:56;;;;;;;9.77;4.63;;;;;;;;;;5006582;28;20096;-57
2022/04/18 13:00:23;;;;;;;6.75;4.68;;;;;;;;;;5006988;28;20042;-57
2022/04/18 13:03:04;;;;;;;8.30;4.85;;;;;;;;;;5006985;28;20042;-57
2022/04/18 13:05:30;;;;;;;8.02;4.68;;;;;;;;;;5006907;28;20090;-57
2022/04/18 13:07:57;;;;;;;9.90;5.10;;;;;;;;;;5007071;28;20054;-57
2022/04/18 13:10:26;;;;;;;8.88;4.35;;;;;;;;;;5006701;28;20046;-57
2022/04/18 13:12:59;;;;;;;6.15;4.22;;;;;;;;;;5006929;28;20050;-57
2022/04/18 13:15:26;;;;;;;7.57;5.28;;;;;;;;;;5006425;28;20054;-57
2022/04/18 13:18:01;;;;;;;8.80;5.30;;;;;;;;;;5007001;28;20476;-57
2022/04/18 13:20:27;;;;;;;9.63;5.18;;;;;;;;;;5006908;28;20081;-57
2022/04/18 13:22:54;;;;;;;9.15;5.50;;;;;;;;;;5006562;28;20054;-57
2022/04/18 13:25:20;;;;;;;7.15;4.68;;;;;;;;;;5006592;28;20400;-57
2022/04/18 13:27:46;;;;;;;9.15;5.13;;;;;;;;;;5006615;28;20046;-57
2022/04/18 13:30:13;;;;;;;6.75;5.10;;;;;;;;;;5006079;28;20046;-57
2022/04/18 13:32:39;;;;;;;7.68;5.05;;;;;;;;;;5006515;28;20053;-58
2022/04/18 13:35:06;;;;;;;8.32;4.82;;;;;;;;;;5006480;28;20042;-57
2022/04/18 13:37:32;;;;;;;8.13;4.93;;;;;;;;;;5006251;28;20080;-58
2022/04/18 13:39:58;;;;;;;10.82;6.25;;;;;;;;;;5006915;28;20065;-57
2022/04/18 13:42:24;;;;;;;8.63;5.50;;;;;;;;;;5006222;28;20500;-57
2022/04/18 13:44:50;;;;;;;8.07;5.32;;;;;;;;;;5005761;28;20096;-57
2022/04/18 13:47:17;;;;;;;7.95;4.93;;;;;;;;;;5006384;28;20050;-57
2022/04/18 13:49:43;;;;;;;7.47;4.82;;;;;;;;;;5006007;28;20480;-57
2022/04/18 13:52:09;;;;;;;8.02;4.68;;;;;;;;;;5006225;28;20050;-58
2022/04/18 13:54:37;;;;;;;9.45;4.95;;;;;;;;;;5005633;28;20041;-58
2022/04/18 13:57:04;;;;;;;8.32;4.93;;;;;;;;;;5006096;28;20046;-58
2022/04/18 13:59:30;;;;;;;7.13;4.88;;;;;;;;;;5005288;28;20116;-58
2022/04/18 14:01:56;;;;;;;9.25;5.15;;;;;;;;;;5005349;28;20096;-58
2022/04/18 14:04:23;;;;;;;12.70;5.60;;;;;;;;;;5008967;28;20104;-57
2022/04/18 14:06:49;;;;;;;8.00;4.85;;;;;;;;;;5024907;28;20053;-57
2022/04/18 14:09:15;;;;;;;8.93;5.22;;;;;;;;;;5024833;28;20116;-58
2022/04/18 14:11:41;;;;;;;6.65;4.30;;;;;;;;;;5006997;28;20112;-58
2022/04/18 14:14:08;;;;;;;10.07;5.40;;;;;;;;;;5025074;28;20139;-58
2022/04/18 14:22:04;;;;;;;9.40;5.13;;;;;;;;;;5025041;28;20097;-58
2022/04/18 14:24:31;;;;;;;7.07;4.88;;;;;;;;;;5006251;28;20049;-59
2022/04/18 14:26:57;;;;;;;7.05;5.00;;;;;;;;;;5017027;28;20045;-58
2022/04/18 14:29:23;;;;;;;8.73;5.47;;;;;;;;;;5005998;28;20038;-58
2022/04/18 14:31:50;;;;;;;8.90;5.30;;;;;;;;;;5023914;28;20041;-58
2022/04/18 14:34:16;;;;;;;7.38;5.55;;;;;;;;;;5024205;28;20465;-58
2022/04/18 14:36:42;;;;;;;7.10;5.07;;;;;;;;;;5023373;28;20439;-58
2022/04/18 14:39:09;;;;;;;8.00;4.90;;;;;;;;;;5024134;28;20176;-58
2022/04/18 14:41:35;;;;;;;6.93;4.60;;;;;;;;;;5024047;28;20132;-59
2022/04/18 14:44:02;;;;;;;8.57;4.90;;;;;;;;;;5006020;28;20037;-59
2022/04/18 14:46:28;;;;;;;6.20;4.40;;;;;;;;;;5024101;28;20045;-59
2022/04/18 14:48:55;;;;;;;8.05;4.65;;;;;;;;;;5024204;28;20045;-58
2022/04/18 14:51:22;;;;;;;7.32;4.13;;;;;;;;;;5023290;28;20045;-58
2022/04/18 14:53:48;;;;;;;7.95;4.38;;;;;;;;;;5020925;28;20045;-58
2022/04/18 14:56:14;;;;;;;6.50;4.13;;;;;;;;;;5023247;28;20113;-58
2022/04/18 14:58:41;;;;;;;8.13;4.78;;;;;;;;;;5023085;28;20574;-57